createdAt,value
2019-04-29T00:00:29.867Z,11.43
2019-04-29T00:01:28.432Z,11.36
2019-04-29T00:02:28.415Z,11.35
2019-04-29T00:03:28.402Z,11.28
2019-04-29T00:04:28.393Z,11.33
2019-04-29T00:05:28.366Z,11.33
2019-04-29T00:06:28.343Z,11.32
2019-04-29T00:07:28.329Z,11.33
2019-04-29T00:08:28.308Z,11.36
2019-04-29T00:09:30.874Z,11.35
2019-04-29T00:10:28.270Z,11.40
2019-04-29T00:11:28.251Z,11.39
2019-04-29T00:12:28.232Z,11.37
2019-04-29T00:13:28.220Z,11.42
2019-04-29T00:14:28.202Z,11.32
2019-04-29T00:15:28.182Z,11.35
2019-04-29T00:16:28.165Z,11.35
2019-04-29T00:17:28.145Z,11.37
2019-04-29T00:18:28.125Z,11.43
2019-04-29T00:19:28.113Z,11.33
2019-04-29T00:20:28.089Z,11.46
2019-04-29T00:21:28.071Z,11.44
2019-04-29T00:22:28.054Z,11.44
2019-04-29T00:23:28.032Z,11.35
2019-04-29T00:24:28.016Z,11.35
2019-04-29T00:25:27.998Z,11.33
2019-04-29T00:26:27.978Z,11.35
2019-04-29T00:27:27.962Z,11.37
2019-04-29T00:28:27.942Z,11.27
2019-04-29T00:29:27.924Z,11.21
2019-04-29T00:30:27.904Z,11.28
2019-04-29T00:31:27.934Z,11.28
2019-04-29T00:32:27.864Z,11.27
2019-04-29T00:33:27.850Z,11.19
2019-04-29T00:34:27.830Z,11.18
2019-04-29T00:35:27.817Z,11.17
2019-04-29T00:36:27.794Z,11.10
2019-04-29T00:37:27.824Z,11.11
2019-04-29T00:38:27.762Z,11.17
2019-04-29T00:39:27.743Z,11.17
2019-04-29T00:40:27.720Z,11.17
2019-04-29T00:41:27.704Z,11.09
2019-04-29T00:42:27.686Z,11.04
2019-04-29T00:43:27.670Z,11.07
2019-04-29T00:44:27.652Z,11.09
2019-04-29T00:45:27.632Z,11.09
2019-04-29T00:46:27.622Z,11.15
2019-04-29T00:47:27.599Z,11.15
2019-04-29T00:48:27.578Z,11.15
2019-04-29T00:49:27.556Z,11.10
2019-04-29T00:50:27.538Z,11.06
2019-04-29T00:51:27.520Z,11.10
2019-04-29T00:52:27.500Z,11.11
2019-04-29T00:53:27.486Z,11.11
2019-04-29T00:54:27.466Z,11.11
2019-04-29T00:55:27.448Z,11.15
2019-04-29T00:56:27.428Z,11.22
2019-04-29T00:57:27.423Z,11.27
2019-04-29T00:58:27.396Z,11.25
2019-04-29T00:59:27.373Z,11.25
2019-04-29T01:00:27.356Z,11.27
2019-04-29T01:01:27.343Z,11.18
2019-04-29T01:02:27.318Z,11.17
2019-04-29T01:03:27.305Z,11.11
2019-04-29T01:04:27.285Z,11.03
2019-04-29T01:05:27.264Z,10.99
2019-04-29T01:06:27.247Z,10.99
2019-04-29T01:07:27.225Z,11.04
2019-04-29T01:08:27.207Z,11.02
2019-04-29T01:09:27.190Z,10.99
2019-04-29T01:10:27.175Z,11.02
2019-04-29T01:11:27.152Z,11.02
2019-04-29T01:12:27.140Z,11.03
2019-04-29T01:13:27.124Z,10.97
2019-04-29T01:14:27.100Z,10.99
2019-04-29T01:15:27.088Z,10.99
2019-04-29T01:16:27.064Z,11.00
2019-04-29T01:17:27.115Z,11.02
2019-04-29T01:18:27.025Z,11.04
2019-04-29T01:19:27.009Z,11.00
2019-04-29T01:20:26.993Z,10.99
2019-04-29T01:21:26.985Z,10.94
2019-04-29T01:22:26.952Z,10.92
2019-04-29T01:23:26.937Z,10.84
2019-04-29T01:24:26.925Z,10.94
2019-04-29T01:25:26.903Z,11.00
2019-04-29T01:26:26.884Z,11.03
2019-04-29T01:27:26.864Z,10.96
2019-04-29T01:28:26.845Z,10.97
2019-04-29T01:29:26.823Z,11.04
2019-04-29T01:30:26.807Z,11.07
2019-04-29T01:31:26.789Z,11.00
2019-04-29T01:32:26.772Z,11.04
2019-04-29T01:33:26.749Z,11.04
2019-04-29T01:34:26.734Z,11.03
2019-04-29T01:35:26.716Z,10.94
2019-04-29T01:36:26.695Z,10.94
2019-04-29T01:37:26.677Z,11.00
2019-04-29T01:38:26.661Z,10.96
2019-04-29T01:39:26.640Z,10.97
2019-04-29T01:40:26.622Z,10.96
2019-04-29T01:41:26.605Z,10.99
2019-04-29T01:42:26.591Z,10.91
2019-04-29T01:43:26.569Z,10.91
2019-04-29T01:44:26.551Z,10.89
2019-04-29T01:45:26.531Z,10.89
2019-04-29T01:46:26.517Z,11.00
2019-04-29T01:47:26.494Z,10.89
2019-04-29T01:48:26.473Z,11.00
2019-04-29T01:49:26.463Z,10.91
2019-04-29T01:50:26.439Z,10.91
2019-04-29T01:51:26.423Z,10.89
2019-04-29T01:52:26.399Z,11.00
2019-04-29T01:53:26.385Z,10.84
2019-04-29T01:54:26.365Z,10.92
2019-04-29T01:55:26.344Z,11.02
2019-04-29T01:56:26.330Z,10.92
2019-04-29T01:57:26.312Z,10.88
2019-04-29T01:58:26.293Z,10.86
2019-04-29T01:59:26.284Z,10.86
2019-04-29T02:00:26.253Z,10.79
2019-04-29T02:01:26.237Z,10.82
2019-04-29T02:02:26.222Z,10.84
2019-04-29T02:03:26.199Z,10.84
2019-04-29T02:04:26.180Z,10.92
2019-04-29T02:05:26.168Z,10.85
2019-04-29T02:06:26.146Z,10.94
2019-04-29T02:07:26.125Z,10.92
2019-04-29T02:08:26.107Z,10.85
2019-04-29T02:09:26.091Z,10.86
2019-04-29T02:10:26.068Z,10.88
2019-04-29T02:11:26.057Z,10.91
2019-04-29T02:12:26.035Z,10.92
2019-04-29T02:13:26.015Z,10.88
2019-04-29T02:14:25.994Z,10.92
2019-04-29T02:15:26.005Z,10.81
2019-04-29T02:16:25.986Z,10.94
2019-04-29T02:17:25.940Z,10.92
2019-04-29T02:18:25.922Z,10.78
2019-04-29T02:19:25.908Z,10.78
2019-04-29T02:20:25.892Z,10.76
2019-04-29T02:21:25.866Z,10.78
2019-04-29T02:22:25.846Z,10.78
2019-04-29T02:23:25.831Z,10.76
2019-04-29T02:24:25.811Z,10.74
2019-04-29T02:25:25.796Z,10.68
2019-04-29T02:26:25.782Z,10.64
2019-04-29T02:27:25.755Z,10.66
2019-04-29T02:28:25.738Z,10.74
2019-04-29T02:29:25.719Z,10.78
2019-04-29T02:30:25.697Z,10.85
2019-04-29T02:31:25.683Z,10.85
2019-04-29T02:32:25.663Z,10.86
2019-04-29T02:33:25.646Z,10.82
2019-04-29T02:34:25.623Z,10.78
2019-04-29T02:35:25.609Z,10.73
2019-04-29T02:36:29.713Z,10.79
2019-04-29T02:37:25.567Z,10.70
2019-04-29T02:38:25.553Z,10.73
2019-04-29T02:39:25.531Z,10.79
2019-04-29T02:40:25.514Z,10.82
2019-04-29T02:41:25.494Z,10.86
2019-04-29T02:42:25.472Z,10.79
2019-04-29T02:43:25.465Z,10.70
2019-04-29T02:44:25.438Z,10.66
2019-04-29T02:45:25.425Z,10.78
2019-04-29T02:46:25.397Z,10.67
2019-04-29T02:47:25.373Z,10.76
2019-04-29T02:48:30.041Z,10.76
2019-04-29T02:49:28.596Z,10.74
2019-04-29T02:50:25.328Z,10.74
2019-04-29T02:51:25.415Z,10.76
2019-04-29T02:52:25.291Z,10.79
2019-04-29T02:53:25.285Z,10.78
2019-04-29T02:54:25.295Z,10.70
2019-04-29T02:55:25.243Z,10.70
2019-04-29T02:56:25.215Z,10.70
2019-04-29T02:57:25.203Z,10.67
2019-04-29T02:58:25.179Z,10.56
2019-04-29T02:59:25.160Z,10.64
2019-04-29T03:00:25.143Z,10.63
2019-04-29T03:01:25.133Z,10.61
2019-04-29T03:02:25.103Z,10.56
2019-04-29T03:03:25.084Z,10.61
2019-04-29T03:04:25.070Z,10.59
2019-04-29T03:05:25.051Z,10.56
2019-04-29T03:06:25.036Z,10.64
2019-04-29T03:07:25.008Z,10.63
2019-04-29T03:08:24.994Z,10.61
2019-04-29T03:09:24.977Z,10.60
2019-04-29T03:10:24.948Z,10.68
2019-04-29T03:11:24.934Z,10.64
2019-04-29T03:12:24.913Z,10.60
2019-04-29T03:13:24.898Z,10.61
2019-04-29T03:14:24.887Z,10.55
2019-04-29T03:15:24.862Z,10.56
2019-04-29T03:16:24.844Z,10.44
2019-04-29T03:17:24.822Z,10.42
2019-04-29T03:18:24.821Z,10.44
2019-04-29T03:19:24.786Z,10.45
2019-04-29T03:20:24.767Z,10.48
2019-04-29T03:21:24.748Z,10.48
2019-04-29T03:22:24.726Z,10.51
2019-04-29T03:23:24.712Z,10.48
2019-04-29T03:24:24.689Z,10.45
2019-04-29T03:25:24.671Z,10.47
2019-04-29T03:26:24.652Z,10.53
2019-04-29T03:27:24.636Z,10.45
2019-04-29T03:28:24.619Z,10.59
2019-04-29T03:29:24.607Z,10.63
2019-04-29T03:30:24.578Z,10.59
2019-04-29T03:31:24.595Z,10.73
2019-04-29T03:32:24.541Z,10.76
2019-04-29T03:33:24.529Z,10.76
2019-04-29T03:34:24.512Z,10.76
2019-04-29T03:35:24.483Z,10.74
2019-04-29T03:36:24.470Z,10.84
2019-04-29T03:37:24.447Z,10.81
2019-04-29T03:38:24.431Z,10.76
2019-04-29T03:39:24.410Z,10.84
2019-04-29T03:40:24.390Z,10.73
2019-04-29T03:41:24.371Z,10.74
2019-04-29T03:42:24.350Z,10.88
2019-04-29T03:43:24.334Z,10.78
2019-04-29T03:44:29.935Z,10.74
2019-04-29T03:45:29.864Z,10.79
2019-04-29T03:46:29.845Z,10.71
2019-04-29T03:47:29.832Z,10.78
2019-04-29T03:48:29.817Z,10.79
2019-04-29T03:49:29.793Z,10.82
2019-04-29T03:50:29.770Z,10.78
2019-04-29T03:51:29.750Z,10.76
2019-04-29T03:52:29.734Z,10.79
2019-04-29T03:53:29.712Z,10.82
2019-04-29T03:54:29.696Z,10.79
2019-04-29T03:55:39.132Z,10.92
2019-04-29T03:56:29.657Z,10.92
2019-04-29T03:57:29.641Z,10.91
2019-04-29T03:58:29.620Z,10.92
2019-04-29T03:59:29.604Z,10.92
2019-04-29T04:00:29.585Z,10.86
2019-04-29T04:01:29.562Z,10.82
2019-04-29T04:02:29.545Z,10.81
2019-04-29T04:03:29.527Z,10.81
2019-04-29T04:04:29.507Z,10.82
2019-04-29T04:05:29.497Z,10.88
2019-04-29T04:06:29.467Z,10.81
2019-04-29T04:07:29.617Z,10.85
2019-04-29T04:08:29.433Z,10.81
2019-04-29T04:09:29.439Z,10.96
2019-04-29T04:10:29.395Z,10.88
2019-04-29T04:11:29.375Z,10.79
2019-04-29T04:12:29.371Z,10.79
2019-04-29T04:13:29.354Z,10.79
2019-04-29T04:14:29.321Z,10.76
2019-04-29T04:15:29.301Z,10.78
2019-04-29T04:16:29.284Z,10.81
2019-04-29T04:17:29.266Z,10.74
2019-04-29T04:18:29.244Z,10.74
2019-04-29T04:19:29.226Z,10.78
2019-04-29T04:20:29.209Z,10.73
2019-04-29T04:21:29.191Z,10.76
2019-04-29T04:22:29.173Z,10.85
2019-04-29T04:23:29.153Z,10.79
2019-04-29T04:24:29.129Z,10.85
2019-04-29T04:25:29.117Z,10.88
2019-04-29T04:26:29.100Z,10.91
2019-04-29T04:27:29.076Z,10.86
2019-04-29T04:28:29.061Z,10.99
2019-04-29T04:29:29.042Z,10.92
2019-04-29T04:30:29.022Z,10.89
2019-04-29T04:31:29.001Z,10.94
2019-04-29T04:32:28.979Z,10.92
2019-04-29T04:33:28.956Z,11.02
2019-04-29T04:34:28.948Z,10.99
2019-04-29T04:35:28.925Z,11.03
2019-04-29T04:36:28.912Z,11.04
2019-04-29T04:37:28.890Z,11.04
2019-04-29T04:38:28.870Z,10.91
2019-04-29T04:39:28.851Z,10.99
2019-04-29T04:40:28.918Z,10.89
2019-04-29T04:41:28.815Z,11.02
2019-04-29T04:42:30.048Z,10.88
2019-04-29T04:43:28.775Z,10.88
2019-04-29T04:44:28.757Z,10.97
2019-04-29T04:45:28.743Z,11.02
2019-04-29T04:46:28.720Z,11.09
2019-04-29T04:47:28.790Z,11.00
2019-04-29T04:48:28.690Z,11.03
2019-04-29T04:49:28.662Z,10.96
2019-04-29T04:50:28.645Z,10.99
2019-04-29T04:51:28.627Z,11.04
2019-04-29T04:52:28.621Z,11.06
2019-04-29T04:53:28.590Z,11.03
2019-04-29T04:54:31.474Z,11.00
2019-04-29T04:55:28.552Z,11.07
2019-04-29T04:56:28.534Z,11.09
2019-04-29T04:57:28.510Z,11.10
2019-04-29T04:58:28.504Z,11.10
2019-04-29T04:59:28.478Z,11.19
2019-04-29T05:00:28.464Z,11.17
2019-04-29T05:01:28.443Z,11.24
2019-04-29T05:02:28.421Z,11.22
2019-04-29T05:03:28.404Z,11.22
2019-04-29T05:04:28.384Z,11.21
2019-04-29T05:05:28.368Z,11.17
2019-04-29T05:06:28.346Z,11.10
2019-04-29T05:07:28.330Z,11.07
2019-04-29T05:08:28.308Z,11.09
2019-04-29T05:09:28.290Z,11.15
2019-04-29T05:10:28.267Z,11.09
2019-04-29T05:11:28.256Z,11.15
2019-04-29T05:12:28.237Z,11.07
2019-04-29T05:13:28.817Z,11.18
2019-04-29T05:14:28.201Z,11.14
2019-04-29T05:15:28.181Z,11.22
2019-04-29T05:16:28.162Z,11.32
2019-04-29T05:17:28.140Z,11.19
2019-04-29T05:18:28.124Z,11.28
2019-04-29T05:19:28.103Z,11.28
2019-04-29T05:20:28.085Z,11.24
2019-04-29T05:21:28.136Z,11.22
2019-04-29T05:22:28.051Z,11.29
2019-04-29T05:23:28.036Z,11.25
2019-04-29T05:24:28.013Z,11.22
2019-04-29T05:25:28.000Z,11.24
2019-04-29T05:26:27.975Z,11.18
2019-04-29T05:27:27.959Z,11.22
2019-04-29T05:28:27.934Z,11.24
2019-04-29T05:29:28.796Z,11.19
2019-04-29T05:30:27.909Z,11.22
2019-04-29T05:31:27.876Z,11.19
2019-04-29T05:32:27.863Z,11.24
2019-04-29T05:33:27.851Z,11.24
2019-04-29T05:34:27.827Z,11.22
2019-04-29T05:35:27.804Z,11.25
2019-04-29T05:36:27.791Z,11.21
2019-04-29T05:37:27.768Z,11.17
2019-04-29T05:38:27.751Z,11.17
2019-04-29T05:39:27.731Z,11.25
2019-04-29T05:40:27.717Z,11.24
2019-04-29T05:41:30.177Z,11.25
2019-04-29T05:42:27.677Z,11.21
2019-04-29T05:43:32.041Z,11.17
2019-04-29T05:44:27.642Z,11.27
2019-04-29T05:45:27.623Z,11.17
2019-04-29T05:46:27.607Z,11.24
2019-04-29T05:47:27.583Z,11.24
2019-04-29T05:48:31.665Z,11.14
2019-04-29T05:49:27.547Z,11.24
2019-04-29T05:50:27.531Z,11.24
2019-04-29T05:51:28.531Z,11.19
2019-04-29T05:52:30.081Z,11.24
2019-04-29T05:53:27.477Z,11.28
2019-04-29T05:54:31.894Z,11.25
2019-04-29T05:55:27.439Z,11.24
2019-04-29T05:56:27.417Z,11.22
2019-04-29T05:57:27.402Z,11.22
2019-04-29T05:58:27.377Z,11.24
2019-04-29T05:59:27.361Z,11.22
2019-04-29T06:00:27.347Z,11.19
2019-04-29T06:01:27.323Z,11.22
2019-04-29T06:02:33.545Z,11.22
2019-04-29T06:03:27.286Z,11.22
2019-04-29T06:04:28.721Z,11.22
2019-04-29T06:05:27.253Z,11.18
2019-04-29T06:06:27.233Z,11.07
2019-04-29T06:07:27.222Z,11.14
2019-04-29T06:08:27.199Z,11.09
2019-04-29T06:09:27.183Z,11.14
2019-04-29T06:10:27.163Z,11.11
2019-04-29T06:11:27.146Z,11.09
2019-04-29T06:12:27.127Z,11.15
2019-04-29T06:13:27.102Z,11.17
2019-04-29T06:14:27.084Z,11.09
2019-04-29T06:15:27.066Z,11.11
2019-04-29T06:16:27.054Z,11.10
2019-04-29T06:17:27.030Z,11.18
2019-04-29T06:18:27.009Z,11.29
2019-04-29T06:19:27.001Z,11.33
2019-04-29T06:20:26.977Z,11.37
2019-04-29T06:21:26.964Z,11.44
2019-04-29T06:22:26.952Z,11.43
2019-04-29T06:23:26.919Z,11.42
2019-04-29T06:24:26.901Z,11.44
2019-04-29T06:25:26.882Z,11.49
2019-04-29T06:26:26.865Z,11.40
2019-04-29T06:27:26.848Z,11.51
2019-04-29T06:28:28.216Z,11.47
2019-04-29T06:29:26.810Z,11.51
2019-04-29T06:30:26.796Z,11.62
2019-04-29T06:31:26.775Z,11.57
2019-04-29T06:32:26.752Z,11.61
2019-04-29T06:33:29.049Z,11.60
2019-04-29T06:34:26.720Z,11.49
2019-04-29T06:35:26.699Z,11.58
2019-04-29T06:36:26.684Z,11.55
2019-04-29T06:37:26.669Z,11.61
2019-04-29T06:38:26.642Z,11.60
2019-04-29T06:39:26.627Z,11.57
2019-04-29T06:40:30.491Z,11.52
2019-04-29T06:41:26.590Z,11.44
2019-04-29T06:42:26.573Z,11.46
2019-04-29T06:43:28.914Z,11.52
2019-04-29T06:44:26.534Z,11.43
2019-04-29T06:45:26.513Z,11.44
2019-04-29T06:46:26.497Z,11.51
2019-04-29T06:47:26.483Z,11.49
2019-04-29T06:48:26.460Z,11.47
2019-04-29T06:49:26.443Z,11.51
2019-04-29T06:50:26.426Z,11.46
2019-04-29T06:51:26.405Z,11.54
2019-04-29T06:52:26.391Z,11.60
2019-04-29T06:53:26.372Z,11.55
2019-04-29T06:54:26.348Z,11.57
2019-04-29T06:55:26.337Z,11.60
2019-04-29T06:56:26.319Z,11.57
2019-04-29T06:57:26.298Z,11.61
2019-04-29T06:58:26.284Z,11.61
2019-04-29T06:59:26.263Z,11.65
2019-04-29T07:00:26.242Z,11.62
2019-04-29T07:01:26.234Z,11.60
2019-04-29T07:02:26.211Z,11.60
2019-04-29T07:03:26.721Z,11.64
2019-04-29T07:04:26.170Z,11.52
2019-04-29T07:05:26.150Z,11.57
2019-04-29T07:06:26.134Z,11.57
2019-04-29T07:07:26.120Z,11.62
2019-04-29T07:08:26.104Z,11.61
2019-04-29T07:09:26.084Z,11.60
2019-04-29T07:10:27.031Z,11.67
2019-04-29T07:11:26.055Z,11.65
2019-04-29T07:12:26.023Z,11.62
2019-04-29T07:13:26.012Z,11.61
2019-04-29T07:14:28.417Z,11.57
2019-04-29T07:15:25.974Z,11.49
2019-04-29T07:16:27.242Z,11.55
2019-04-29T07:17:25.936Z,11.44
2019-04-29T07:18:25.920Z,11.51
2019-04-29T07:19:26.611Z,11.55
2019-04-29T07:20:25.884Z,11.46
2019-04-29T07:21:25.860Z,11.49
2019-04-29T07:22:27.423Z,11.52
2019-04-29T07:23:25.825Z,11.58
2019-04-29T07:24:25.812Z,11.69
2019-04-29T07:25:28.763Z,11.55
2019-04-29T07:26:25.771Z,11.62
2019-04-29T07:27:25.761Z,11.61
2019-04-29T07:31:28.294Z,11.67
2019-04-29T07:32:25.665Z,11.61
2019-04-29T07:35:16.152Z,11.64
2019-04-29T07:37:53.031Z,11.80
2019-04-29T07:38:56.554Z,11.90
2019-04-29T07:39:53.005Z,11.80
2019-04-29T07:40:52.981Z,11.82
2019-04-29T07:41:53.682Z,11.88
2019-04-29T07:42:52.942Z,11.80
2019-04-29T07:43:52.924Z,11.85
2019-04-29T07:44:54.116Z,11.82
2019-04-29T07:45:52.887Z,11.78
2019-04-29T07:46:59.105Z,11.86
2019-04-29T07:47:56.516Z,11.90
2019-04-29T07:49:01.170Z,11.86
2019-04-29T07:49:53.094Z,11.83
2019-04-29T07:50:52.798Z,11.82
2019-04-29T07:51:52.781Z,11.91
2019-04-29T07:52:52.781Z,11.91
2019-04-29T07:53:52.745Z,11.88
2019-04-29T07:54:56.108Z,11.86
2019-04-29T07:55:52.712Z,11.88
2019-04-29T07:56:52.689Z,11.95
2019-04-29T07:57:53.280Z,11.94
2019-04-29T07:58:52.658Z,11.90
2019-04-29T07:59:52.636Z,11.90
2019-04-29T08:00:52.615Z,11.95
2019-04-29T08:01:55.687Z,11.85
2019-04-29T08:02:52.586Z,11.85
2019-04-29T08:03:52.565Z,11.78
2019-04-29T08:04:52.547Z,11.83
2019-04-29T08:05:52.533Z,11.75
2019-04-29T08:06:52.513Z,11.80
2019-04-29T08:07:52.500Z,11.79
2019-04-29T08:08:55.015Z,11.79
2019-04-29T08:09:52.463Z,11.76
2019-04-29T08:10:56.405Z,11.80
2019-04-29T08:11:52.423Z,11.80
2019-04-29T08:12:52.403Z,11.85
2019-04-29T08:13:52.387Z,11.90
2019-04-29T08:14:53.477Z,11.90
2019-04-29T08:15:52.356Z,11.98
2019-04-29T08:16:52.335Z,11.99
2019-04-29T08:18:05.726Z,11.94
2019-04-29T08:18:53.614Z,12.07
2019-04-29T08:19:52.286Z,12.05
2019-04-29T08:20:52.261Z,12.05
2019-04-29T08:21:52.259Z,12.21
2019-04-29T08:22:52.229Z,12.19
2019-04-29T08:23:52.211Z,12.39
2019-04-29T08:24:52.302Z,12.45
2019-04-29T08:25:52.179Z,12.49
2019-04-29T08:26:52.159Z,12.53
2019-04-29T08:27:52.145Z,12.54
2019-04-29T08:28:52.960Z,12.62
2019-04-29T08:29:52.105Z,12.62
2019-04-29T08:30:52.086Z,12.71
2019-04-29T08:31:56.704Z,12.71
2019-04-29T08:32:52.054Z,12.74
2019-04-29T08:33:52.033Z,12.67
2019-04-29T08:34:53.727Z,12.86
2019-04-29T08:35:52.003Z,12.82
2019-04-29T08:36:58.336Z,12.97
2019-04-29T08:37:51.964Z,13.03
2019-04-29T08:38:51.947Z,12.89
2019-04-29T08:40:08.325Z,12.89
2019-04-29T08:40:51.915Z,12.90
2019-04-29T08:41:51.898Z,12.90
2019-04-29T08:42:51.883Z,12.92
2019-04-29T08:43:52.526Z,12.90
2019-04-29T08:44:54.625Z,12.90
2019-04-29T08:45:51.831Z,12.86
2019-04-29T08:46:52.856Z,12.82
2019-04-29T08:47:51.795Z,12.78
2019-04-29T08:48:51.783Z,12.85
2019-04-29T08:49:51.763Z,12.85
2019-04-29T08:50:51.747Z,12.85
2019-04-29T08:51:51.730Z,12.77
2019-04-29T08:52:51.711Z,12.82
2019-04-29T08:53:51.697Z,12.93
2019-04-29T08:54:55.495Z,13.05
2019-04-29T08:55:51.671Z,13.14
2019-04-29T08:57:03.086Z,13.15
2019-04-29T08:57:51.633Z,13.23
2019-04-29T08:58:51.615Z,13.22
2019-04-29T08:59:51.595Z,13.39
2019-04-29T09:00:55.867Z,13.19
2019-04-29T09:01:51.565Z,13.28
2019-04-29T09:02:51.553Z,13.19
2019-04-29T09:03:53.632Z,13.23
2019-04-29T09:04:53.862Z,13.11
2019-04-29T09:06:03.992Z,13.14
2019-04-29T09:06:51.481Z,13.15
2019-04-29T09:07:52.497Z,13.12
2019-04-29T09:08:55.526Z,13.12
2019-04-29T09:09:51.436Z,13.11
2019-04-29T09:10:51.420Z,13.11
2019-04-29T09:11:51.406Z,13.22
2019-04-29T09:12:51.392Z,13.11
2019-04-29T09:13:51.372Z,13.25
2019-04-29T09:14:51.356Z,13.17
2019-04-29T09:15:51.343Z,13.19
2019-04-29T09:16:51.324Z,13.03
2019-04-29T09:17:51.320Z,13.03
2019-04-29T09:18:51.292Z,13.01
2019-04-29T09:19:51.276Z,13.04
2019-04-29T09:20:54.046Z,13.10
2019-04-29T09:23:34.948Z,13.00
2019-04-29T09:24:34.934Z,13.03
2019-04-29T09:25:34.912Z,12.93
2019-04-29T09:26:34.898Z,12.97
2019-04-29T09:27:34.882Z,13.05
2019-04-29T09:28:34.861Z,12.92
2019-04-29T09:29:34.846Z,12.90
2019-04-29T09:30:34.837Z,13.01
2019-04-29T09:31:34.818Z,12.93
2019-04-29T09:32:38.117Z,13.03
2019-04-29T09:33:34.785Z,12.93
2019-04-29T09:34:34.766Z,12.97
2019-04-29T09:35:38.683Z,12.97
2019-04-29T09:36:34.739Z,12.89
2019-04-29T09:37:34.719Z,12.95
2019-04-29T09:38:36.936Z,12.90
2019-04-29T09:39:42.968Z,12.92
2019-04-29T09:42:18.395Z,13.19
2019-04-29T09:43:21.351Z,13.20
2019-04-29T09:44:18.343Z,13.32
2019-04-29T09:45:19.499Z,13.39
2019-04-29T09:46:18.673Z,13.57
2019-04-29T09:47:18.294Z,13.55
2019-04-29T09:48:18.282Z,13.51
2019-04-29T09:50:18.503Z,13.62
2019-04-29T09:51:22.194Z,13.64
2019-04-29T09:52:18.218Z,13.62
2019-04-29T09:53:18.198Z,13.70
2019-04-29T09:54:18.188Z,13.62
2019-04-29T09:55:18.169Z,13.51
2019-04-29T09:56:18.154Z,13.52
2019-04-29T09:57:18.136Z,13.48
2019-04-29T09:58:18.123Z,13.66
2019-04-29T09:59:18.104Z,13.57
2019-04-29T10:00:18.088Z,13.60
2019-04-29T10:01:20.324Z,13.57
2019-04-29T10:02:18.063Z,13.59
2019-04-29T10:03:18.048Z,13.55
2019-04-29T10:04:18.029Z,13.71
2019-04-29T10:05:18.010Z,13.62
2019-04-29T10:06:18.002Z,13.71
2019-04-29T10:07:17.985Z,13.69
2019-04-29T10:08:17.971Z,13.62
2019-04-29T10:09:17.946Z,13.57
2019-04-29T10:10:17.935Z,13.59
2019-04-29T10:11:17.916Z,13.51
2019-04-29T10:12:17.902Z,13.55
2019-04-29T10:13:17.885Z,13.48
2019-04-29T10:14:17.868Z,13.46
2019-04-29T10:15:17.853Z,13.41
2019-04-29T10:16:17.841Z,13.41
2019-04-29T10:17:17.821Z,13.42
2019-04-29T10:18:17.803Z,13.29
2019-04-29T10:19:17.787Z,13.44
2019-04-29T10:20:17.777Z,13.39
2019-04-29T10:21:21.256Z,13.30
2019-04-29T10:22:17.743Z,13.36
2019-04-29T10:23:17.727Z,13.30
2019-04-29T10:24:17.714Z,13.44
2019-04-29T10:25:17.693Z,13.46
2019-04-29T10:26:17.688Z,13.39
2019-04-29T10:27:17.663Z,13.44
2019-04-29T10:28:17.651Z,13.49
2019-04-29T10:29:18.575Z,13.42
2019-04-29T10:30:17.615Z,13.49
2019-04-29T10:31:17.604Z,13.45
2019-04-29T10:32:17.591Z,13.51
2019-04-29T10:33:19.382Z,13.54
2019-04-29T10:34:17.554Z,13.60
2019-04-29T10:35:17.535Z,13.69
2019-04-29T10:36:20.581Z,13.54
2019-04-29T10:37:17.509Z,13.55
2019-04-29T10:38:17.489Z,13.67
2019-04-29T10:39:18.556Z,13.73
2019-04-29T10:40:17.461Z,13.71
2019-04-29T10:41:17.441Z,13.79
2019-04-29T10:42:17.431Z,13.75
2019-04-29T10:43:17.414Z,13.81
2019-04-29T10:44:17.395Z,13.81
2019-04-29T10:45:17.386Z,13.84
2019-04-29T10:46:17.361Z,13.85
2019-04-29T10:47:17.348Z,13.78
2019-04-29T10:48:17.333Z,13.87
2019-04-29T10:49:17.319Z,13.82
2019-04-29T10:50:17.304Z,13.85
2019-04-29T10:51:17.291Z,13.97
2019-04-29T10:52:17.276Z,13.99
2019-04-29T10:53:17.434Z,14.09
2019-04-29T10:54:17.246Z,14.04
2019-04-29T10:55:17.221Z,14.04
2019-04-29T10:56:17.207Z,14.12
2019-04-29T10:57:17.187Z,14.12
2019-04-29T10:58:21.985Z,14.07
2019-04-29T10:59:17.161Z,14.20
2019-04-29T11:00:21.881Z,14.17
2019-04-29T11:01:17.127Z,14.18
2019-04-29T11:02:17.117Z,14.20
2019-04-29T11:03:20.738Z,14.32
2019-04-29T11:04:17.091Z,14.32
2019-04-29T11:05:17.068Z,14.33
2019-04-29T11:06:17.057Z,14.29
2019-04-29T11:07:19.130Z,14.35
2019-04-29T11:08:17.028Z,14.39
2019-04-29T11:09:17.007Z,14.51
2019-04-29T11:10:24.839Z,14.51
2019-04-29T11:11:24.127Z,14.45
2019-04-29T11:12:16.962Z,14.46
2019-04-29T11:13:17.013Z,14.65
2019-04-29T11:14:16.934Z,14.69
2019-04-29T11:15:16.917Z,14.77
2019-04-29T11:16:16.898Z,14.70
2019-04-29T11:17:16.950Z,14.69
2019-04-29T11:18:18.175Z,14.73
2019-04-29T11:19:16.862Z,14.72
2019-04-29T11:20:21.185Z,14.69
2019-04-29T11:21:16.822Z,14.75
2019-04-29T11:22:16.817Z,14.70
2019-04-29T11:23:18.253Z,14.58
2019-04-29T11:24:16.780Z,14.46
2019-04-29T11:25:16.767Z,14.45
2019-04-29T11:26:16.752Z,14.54
2019-04-29T11:27:16.734Z,14.45
2019-04-29T11:28:17.710Z,14.40
2019-04-29T11:29:16.703Z,14.42
2019-04-29T11:30:16.684Z,14.39
2019-04-29T11:31:19.130Z,14.42
2019-04-29T11:32:16.658Z,14.42
2019-04-29T11:33:16.642Z,14.50
2019-04-29T11:34:18.002Z,14.43
2019-04-29T11:35:16.611Z,14.60
2019-04-29T11:36:16.596Z,14.65
2019-04-29T11:37:17.930Z,14.65
2019-04-29T11:38:16.564Z,14.68
2019-04-29T11:39:16.552Z,14.62
2019-04-29T11:40:16.538Z,14.73
2019-04-29T11:41:19.729Z,14.72
2019-04-29T11:42:16.502Z,14.80
2019-04-29T11:43:17.282Z,14.83
2019-04-29T11:44:16.477Z,14.88
2019-04-29T11:45:16.460Z,14.89
2019-04-29T11:46:16.469Z,14.98
2019-04-29T11:47:16.436Z,14.95
2019-04-29T11:48:16.422Z,15.01
2019-04-29T11:49:16.402Z,14.96
2019-04-29T11:50:16.391Z,14.99
2019-04-29T11:51:16.372Z,15.02
2019-04-29T11:52:16.362Z,15.07
2019-04-29T11:53:16.340Z,15.01
2019-04-29T11:54:18.208Z,15.03
2019-04-29T11:55:18.518Z,15.10
2019-04-29T11:56:16.296Z,15.13
2019-04-29T11:57:17.103Z,15.19
2019-04-29T11:58:16.270Z,15.25
2019-04-29T11:59:16.356Z,15.29
2019-04-29T12:00:16.236Z,15.34
2019-04-29T12:01:16.221Z,15.35
2019-04-29T12:02:16.205Z,15.46
2019-04-29T12:03:18.983Z,15.20
2019-04-29T12:04:16.182Z,15.16
2019-04-29T12:05:16.163Z,15.07
2019-04-29T12:06:20.504Z,15.17
2019-04-29T12:07:16.135Z,15.16
2019-04-29T12:08:18.254Z,15.23
2019-04-29T12:09:16.108Z,15.28
2019-04-29T12:10:16.090Z,15.25
2019-04-29T12:11:16.077Z,15.20
2019-04-29T12:12:16.061Z,15.31
2019-04-29T12:13:18.955Z,15.25
2019-04-29T12:14:16.038Z,15.41
2019-04-29T12:15:16.064Z,15.38
2019-04-29T12:16:19.728Z,15.39
2019-04-29T12:17:15.998Z,15.39
2019-04-29T12:18:15.977Z,15.38
2019-04-29T12:19:17.164Z,15.38
2019-04-29T12:20:15.945Z,15.39
2019-04-29T12:21:15.933Z,15.35
2019-04-29T12:22:28.417Z,15.34
2019-04-29T12:23:17.301Z,15.47
2019-04-29T12:24:15.888Z,15.43
2019-04-29T12:25:15.877Z,15.51
2019-04-29T12:26:15.860Z,15.54
2019-04-29T12:27:19.707Z,15.53
2019-04-29T12:28:19.359Z,15.68
2019-04-29T12:29:18.398Z,15.69
2019-04-29T12:30:15.799Z,15.90
2019-04-29T12:31:15.791Z,16.05
2019-04-29T12:32:15.785Z,16.46
2019-04-29T12:33:15.764Z,16.58
2019-04-29T12:34:15.761Z,16.75
2019-04-29T12:35:16.744Z,16.78
2019-04-29T12:36:16.499Z,16.91
2019-04-29T12:37:15.706Z,16.96
2019-04-29T12:38:15.691Z,17.25
2019-04-29T12:39:15.682Z,17.43
2019-04-29T12:40:16.198Z,17.70
2019-04-29T12:41:20.865Z,18.11
2019-04-29T12:42:15.641Z,18.52
2019-04-29T12:43:17.374Z,19.23
2019-04-29T12:44:15.616Z,19.91
2019-04-29T12:45:19.797Z,20.51
2019-04-29T12:46:15.592Z,20.91
2019-04-29T12:47:26.307Z,21.04
2019-04-29T12:48:24.324Z,21.37
2019-04-29T12:49:15.619Z,21.03
2019-04-29T12:50:17.544Z,21.01
2019-04-29T12:51:17.113Z,20.94
2019-04-29T12:52:15.527Z,21.04
2019-04-29T12:53:15.511Z,21.22
2019-04-29T12:54:15.508Z,21.16
2019-04-29T12:55:20.242Z,21.17
2019-04-29T12:56:15.484Z,21.12
2019-04-29T12:57:18.818Z,20.95
2019-04-29T12:58:19.399Z,20.89
2019-04-29T12:59:15.457Z,20.74
2019-04-29T13:00:15.447Z,20.57
2019-04-29T13:01:15.438Z,20.64
2019-04-29T13:02:15.429Z,20.67
2019-04-29T13:03:15.417Z,20.76